Time;durP1;ratioP1;P1;durP2;ratioP2;P2;SDS_P1;SDS_P2;PMS_P1;PMS_P2;Temp;Humidity;BMP_temperature;BMP_pressure;BME280_temperature;BME280_humidity;BME280_pressure;Samples;Min_cycle;Max_cycle;Signal;HPM_P1;HPM_P2
2023/01/29 00:01:46;;;;;;;17.15;14.07;;;7.60;62.00;;;;;;4944347;28;20027;-75
2023/01/29 00:04:12;;;;;;;17.35;13.55;;;7.60;62.10;;;;;;4953541;28;20659;-76
2023/01/29 00:06:39;;;;;;;18.58;14.35;;;7.50;62.00;;;;;;4945349;28;20027;-76
2023/01/29 00:09:05;;;;;;;15.40;13.10;;;7.50;62.00;;;;;;4941512;29;20047;-76
2023/01/29 00:11:30;;;;;;;16.52;13.82;;;7.50;62.10;;;;;;4942034;29;20180;-75
2023/01/29 00:13:57;;;;;;;18.73;14.52;;;7.40;62.00;;;;;;4946020;28;20043;-75
2023/01/29 00:16:23;;;;;;;16.33;13.52;;;7.40;62.10;;;;;;4943796;28;20167;-76
2023/01/29 00:18:49;;;;;;;16.90;13.77;;;7.40;62.10;;;;;;4958517;28;20185;-76
2023/01/29 00:21:18;;;;;;;17.75;14.18;;;7.30;62.00;;;;;;4944813;28;20824;-76
2023/01/29 00:23:44;;;;;;;18.02;13.18;;;7.30;62.00;;;;;;4944462;28;20044;-76
2023/01/29 00:26:11;;;;;;;19.52;15.52;;;7.30;62.10;;;;;;4945220;28;20031;-75
2023/01/29 00:28:42;;;;;;;15.73;13.50;;;7.30;62.10;;;;;;4939498;28;20054;-77
2023/01/29 00:31:13;;;;;;;16.55;14.13;;;7.30;62.10;;;;;;4949851;28;20042;-76
2023/01/29 00:33:40;;;;;;;17.83;15.63;;;7.30;62.10;;;;;;4954783;28;20027;-76
2023/01/29 00:36:09;;;;;;;16.38;14.38;;;7.30;62.10;;;;;;4941729;28;20059;-76
2023/01/29 00:38:37;;;;;;;18.02;15.45;;;7.30;62.20;;;;;;4941845;28;20042;-76
2023/01/29 00:46:41;;;;;;;16.50;14.70;;;7.30;62.20;;;;;;4940027;28;20041;-76
2023/01/29 00:49:08;;;;;;;18.92;15.55;;;7.30;62.20;;;;;;4954027;28;20126;-76
2023/01/29 00:51:35;;;;;;;18.95;15.77;;;7.30;62.30;;;;;;4947488;28;20619;-76
2023/01/29 00:54:01;;;;;;;19.58;16.35;;;7.20;62.10;;;;;;4953713;28;20054;-77
2023/01/29 00:56:28;;;;;;;18.00;16.10;;;7.20;62.10;;;;;;4956317;28;20047;-76
2023/01/29 00:58:55;;;;;;;20.10;16.85;;;7.20;62.20;;;;;;4948935;28;20037;-76
2023/01/29 01:04:09;;;;;;;18.48;15.38;;;7.20;62.20;;;;;;4965583;28;20039;-74
2023/01/29 01:06:42;;;;;;;20.10;17.92;;;7.30;62.40;;;;;;4940785;28;20097;-75
2023/01/29 01:11:54;;;;;;;22.02;18.42;;;7.20;62.30;;;;;;4943614;28;20431;-75
2023/01/29 01:14:20;;;;;;;21.25;17.73;;;7.30;62.40;;;;;;4943239;28;20042;-75
2023/01/29 01:16:47;;;;;;;21.10;18.08;;;7.30;62.50;;;;;;4943761;28;20050;-76
2023/01/29 01:19:14;;;;;;;20.58;17.83;;;7.30;62.50;;;;;;4942840;28;20060;-75
2023/01/29 01:21:44;;;;;;;21.25;18.05;;;7.30;62.50;;;;;;4943155;29;20081;-76
2023/01/29 01:24:11;;;;;;;22.42;18.38;;;7.30;62.50;;;;;;4939978;28;20458;-75
2023/01/29 01:26:37;;;;;;;22.85;18.92;;;7.30;62.50;;;;;;4934553;29;20039;-75
2023/01/29 01:29:04;;;;;;;20.90;18.35;;;7.30;62.50;;;;;;4934802;28;20050;-74
2023/01/29 01:31:30;;;;;;;21.75;19.25;;;7.30;62.50;;;;;;4943135;29;20509;-77
2023/01/29 01:33:56;;;;;;;26.65;20.83;;;7.30;62.50;;;;;;4943479;28;20154;-76
2023/01/29 01:36:22;;;;;;;22.75;20.38;;;7.40;62.70;;;;;;4938464;29;20114;-76
2023/01/29 01:38:48;;;;;;;23.15;20.23;;;7.30;62.50;;;;;;4942617;29;20170;-77
2023/01/29 01:41:17;;;;;;;24.55;21.90;;;7.30;62.50;;;;;;4939462;28;20109;-77
2023/01/29 01:43:54;;;;;;;23.95;20.50;;;7.40;62.70;;;;;;4941740;29;20452;-76
2023/01/29 01:46:21;;;;;;;26.45;20.60;;;7.30;62.50;;;;;;4942533;28;20384;-76
2023/01/29 01:48:54;;;;;;;21.40;18.85;;;7.40;62.70;;;;;;4942971;29;20031;-76
2023/01/29 01:51:24;;;;;;;21.45;19.17;;;7.30;62.50;;;;;;4941519;28;20046;-77
2023/01/29 01:54:14;;;;;;;20.92;18.05;;;7.40;62.70;;;;;;4939393;28;20059;-75
2023/01/29 01:56:49;;;;;;;21.92;18.45;;;7.40;62.70;;;;;;4954065;28;20051;-76
2023/01/29 01:59:17;;;;;;;19.95;17.83;;;7.40;62.70;;;;;;4944908;28;20040;-75
2023/01/29 02:01:48;;;;;;;23.52;20.08;;;7.40;62.70;;;;;;4946237;29;20043;-76
2023/01/29 02:10:12;;;;;;;24.10;19.35;;;7.40;62.70;;;;;;4944274;28;20031;-76
2023/01/29 02:12:39;;;;;;;21.70;19.20;;;7.40;62.70;;;;;;4945349;28;20347;-76
2023/01/29 02:15:06;;;;;;;21.02;18.33;;;7.40;62.70;;;;;;4947722;28;20043;-75
2023/01/29 02:17:32;;;;;;;22.08;18.58;;;7.40;62.70;;;;;;4945163;28;20063;-74
2023/01/29 02:20:13;;;;;;;20.63;18.42;;;7.40;62.80;;;;;;4947105;28;20035;-74
2023/01/29 02:22:46;;;;;;;23.45;19.05;;;7.40;62.80;;;;;;4946166;28;20035;-74
2023/01/29 02:25:40;;;;;;;21.35;18.58;;;7.40;62.80;;;;;;4958894;28;20046;-74
2023/01/29 02:28:43;;;;;;;19.85;17.75;;;7.40;62.80;;;;;;4938281;28;20031;-74
2023/01/29 02:31:33;;;;;;;21.23;17.63;;;7.40;62.80;;;;;;4938269;29;20058;-75
2023/01/29 02:34:24;;;;;;;21.45;18.25;;;7.50;62.90;;;;;;4945679;29;20438;-75
2023/01/29 02:37:02;;;;;;;22.00;18.48;;;7.50;62.90;;;;;;4928645;28;20410;-74
2023/01/29 02:39:38;;;;;;;19.30;16.83;;;7.50;62.80;;;;;;4963930;28;20048;-75
2023/01/29 02:42:27;;;;;;;21.15;17.83;;;7.50;62.90;;;;;;4950978;28;20031;-74
2023/01/29 02:45:03;;;;;;;21.02;17.63;;;7.50;62.90;;;;;;4943142;28;20047;-75
2023/01/29 02:47:43;;;;;;;21.08;18.77;;;7.50;62.90;;;;;;4949528;28;20499;-75
2023/01/29 02:50:19;;;;;;;24.20;18.58;;;7.50;62.90;;;;;;4948325;29;20058;-75
2023/01/29 02:53:06;;;;;;;21.85;17.88;;;7.50;62.90;;;;;;4950332;28;20162;-75
2023/01/29 02:55:43;;;;;;;22.30;17.52;;;7.50;62.90;;;;;;4947956;28;20540;-76
2023/01/29 02:58:16;;;;;;;20.60;17.23;;;7.50;62.90;;;;;;4945781;29;20035;-76
2023/01/29 03:00:45;;;;;;;21.88;17.15;;;7.50;62.90;;;;;;4947977;29;20089;-76
2023/01/29 03:03:24;;;;;;;19.25;17.25;;;7.50;62.90;;;;;;4938296;29;20110;-75
2023/01/29 03:06:17;;;;;;;21.63;18.10;;;7.50;62.90;;;;;;4950014;28;20035;-75
2023/01/29 03:08:50;;;;;;;21.17;16.95;;;7.50;62.90;;;;;;4948418;28;20041;-75
2023/01/29 03:11:17;;;;;;;20.00;17.45;;;7.50;63.00;;;;;;4946009;29;20053;-74
2023/01/29 03:13:55;;;;;;;20.98;17.27;;;7.50;63.00;;;;;;4930303;29;20569;-74
2023/01/29 03:16:21;;;;;;;19.52;17.00;;;7.50;63.00;;;;;;4938086;29;20046;-74
2023/01/29 03:18:55;;;;;;;18.80;16.38;;;7.50;63.00;;;;;;4942978;28;20039;-74
2023/01/29 03:21:50;;;;;;;21.30;16.77;;;7.50;63.00;;;;;;4938895;29;20114;-74
2023/01/29 03:34:15;;;;;;;20.65;16.92;;;7.60;63.10;;;;;;4948885;29;20046;-77
2023/01/29 03:36:54;;;;;;;20.85;16.65;;;7.50;63.00;;;;;;4944543;29;20118;-75
2023/01/29 03:39:24;;;;;;;21.77;17.55;;;7.60;63.10;;;;;;4943494;29;20471;-76
2023/01/29 03:42:25;;;;;;;20.00;16.17;;;7.60;63.10;;;;;;4926767;29;20054;-76
2023/01/29 03:44:51;;;;;;;20.95;17.60;;;7.50;63.00;;;;;;4924694;29;20484;-76
2023/01/29 03:47:42;;;;;;;20.75;17.02;;;7.60;63.20;;;;;;4929245;29;20080;-76
2023/01/29 03:50:34;;;;;;;22.23;17.83;;;7.50;63.00;;;;;;4947251;29;20107;-76
2023/01/29 03:53:32;;;;;;;20.00;16.70;;;7.50;63.10;;;;;;4943054;29;20043;-75
2023/01/29 03:56:02;;;;;;;23.00;17.67;;;7.50;63.60;;;;;;4931460;29;20546;-77
2023/01/29 03:58:52;;;;;;;21.73;17.45;;;7.60;63.20;;;;;;4946403;29;20546;-78
2023/01/29 04:01:26;;;;;;;19.25;17.25;;;7.60;63.20;;;;;;4947624;29;20039;-74
2023/01/29 04:03:57;;;;;;;22.05;17.02;;;7.60;63.20;;;;;;4948302;29;20031;-76
2023/01/29 04:06:28;;;;;;;18.90;16.85;;;7.60;63.20;;;;;;4944160;29;20045;-76
2023/01/29 04:09:20;;;;;;;19.00;16.13;;;7.60;63.30;;;;;;4941331;29;20043;-76
2023/01/29 04:12:09;;;;;;;19.90;16.67;;;7.60;63.30;;;;;;4931327;29;20047;-77
2023/01/29 04:14:38;;;;;;;21.05;17.08;;;7.60;63.30;;;;;;4938514;29;20054;-75
2023/01/29 04:17:13;;;;;;;19.65;16.00;;;7.60;63.30;;;;;;4948030;29;20035;-75
2023/01/29 04:19:46;;;;;;;22.52;17.48;;;7.60;63.30;;;;;;4931900;29;20054;-74
2023/01/29 04:22:25;;;;;;;22.23;16.80;;;7.60;63.30;;;;;;4947562;28;20212;-76
2023/01/29 04:24:51;;;;;;;18.85;16.80;;;7.60;63.30;;;;;;4943210;29;20044;-75
2023/01/29 04:27:51;;;;;;;17.48;15.63;;;7.60;63.30;;;;;;4945639;29;20046;-75
2023/01/29 04:30:36;;;;;;;19.00;16.73;;;7.60;63.40;;;;;;4939295;29;20050;-76
2023/01/29 04:33:08;;;;;;;22.00;16.90;;;7.60;63.30;;;;;;4947735;29;20068;-74
2023/01/29 04:35:53;;;;;;;22.52;17.65;;;7.70;63.50;;;;;;4947416;29;20580;-75
2023/01/29 04:38:41;;;;;;;20.50;16.65;;;7.60;63.30;;;;;;4946659;29;20063;-76
2023/01/29 04:41:14;;;;;;;19.05;15.68;;;7.60;63.30;;;;;;4930105;29;20039;-75
2023/01/29 04:44:15;;;;;;;19.10;14.93;;;7.60;63.30;;;;;;4948604;29;20035;-74
2023/01/29 04:47:05;;;;;;;19.42;15.57;;;7.60;63.30;;;;;;4941895;28;20023;-74
2023/01/29 04:49:43;;;;;;;21.35;17.05;;;7.60;63.30;;;;;;4946517;29;20038;-74
2023/01/29 04:52:42;;;;;;;18.70;15.60;;;7.70;63.50;;;;;;4946813;29;20060;-75
2023/01/29 04:55:34;;;;;;;18.00;15.43;;;7.70;63.60;;;;;;4915096;29;20058;-74
2023/01/29 04:58:09;;;;;;;25.17;16.63;;;7.70;63.60;;;;;;4943468;29;20066;-74
2023/01/29 05:00:39;;;;;;;23.42;15.95;;;7.70;63.60;;;;;;4948540;28;20035;-74
2023/01/29 05:03:08;;;;;;;21.23;16.63;;;7.70;64.10;;;;;;4947741;28;20507;-75
2023/01/29 05:05:35;;;;;;;17.05;14.68;;;7.70;63.60;;;;;;4946575;29;20491;-74
2023/01/29 05:08:03;;;;;;;19.00;16.00;;;7.70;64.20;;;;;;4946343;29;20042;-74
2023/01/29 05:10:29;;;;;;;17.23;15.43;;;7.70;63.70;;;;;;4945965;29;20582;-74
2023/01/29 05:13:01;;;;;;;20.45;15.60;;;7.70;63.70;;;;;;4945683;28;20107;-74
2023/01/29 05:15:40;;;;;;;21.48;16.55;;;7.70;63.70;;;;;;4948283;28;20650;-74
2023/01/29 05:18:07;;;;;;;18.58;15.20;;;7.70;63.70;;;;;;4948524;28;20034;-75
2023/01/29 05:20:37;;;;;;;20.83;15.20;;;7.70;63.70;;;;;;4938837;28;20079;-75
2023/01/29 05:23:03;;;;;;;17.45;14.98;;;7.70;63.70;;;;;;4946700;29;20877;-74
2023/01/29 05:25:32;;;;;;;19.17;14.48;;;7.80;63.90;;;;;;4947005;28;20385;-75
2023/01/29 05:28:12;;;;;;;16.00;13.98;;;7.80;63.90;;;;;;4934606;29;20039;-76
2023/01/29 05:30:39;;;;;;;18.27;14.52;;;7.80;63.90;;;;;;4946857;29;20047;-75
2023/01/29 05:33:16;;;;;;;16.48;14.63;;;7.80;63.90;;;;;;4942617;29;20040;-74
2023/01/29 05:35:42;;;;;;;15.75;13.30;;;7.80;63.90;;;;;;4937125;29;20037;-75
2023/01/29 05:38:08;;;;;;;17.48;14.25;;;7.80;63.90;;;;;;4946292;29;20487;-75
2023/01/29 05:40:35;;;;;;;18.80;14.77;;;7.80;63.90;;;;;;4947111;28;20039;-75
2023/01/29 05:43:01;;;;;;;18.77;14.52;;;7.80;64.00;;;;;;4947636;28;20536;-76
2023/01/29 05:45:27;;;;;;;18.02;14.68;;;7.80;64.50;;;;;;4943810;29;20115;-77
2023/01/29 05:47:57;;;;;;;18.60;14.70;;;7.80;64.00;;;;;;4943436;28;20122;-76
2023/01/29 05:50:24;;;;;;;16.55;14.80;;;7.90;64.20;;;;;;4943042;29;20055;-75
2023/01/29 05:52:58;;;;;;;16.17;13.40;;;7.80;64.00;;;;;;4944704;28;20038;-76
2023/01/29 05:55:24;;;;;;;14.75;12.48;;;7.90;64.20;;;;;;4937598;28;20035;-75
2023/01/29 05:57:50;;;;;;;18.00;13.85;;;7.90;64.20;;;;;;4942219;28;20398;-76
2023/01/29 06:00:16;;;;;;;15.65;13.82;;;7.90;64.20;;;;;;4940357;28;20162;-75
2023/01/29 06:02:42;;;;;;;16.05;13.38;;;7.90;64.20;;;;;;4944641;28;20027;-75
2023/01/29 06:05:08;;;;;;;16.35;13.30;;;7.90;64.20;;;;;;4942674;29;20045;-75
2023/01/29 06:07:34;;;;;;;15.93;13.13;;;7.90;64.20;;;;;;4943915;29;20039;-75
2023/01/29 06:10:02;;;;;;;16.05;13.15;;;7.90;64.30;;;;;;4942734;28;20043;-77
2023/01/29 06:12:28;;;;;;;16.92;12.38;;;7.90;64.30;;;;;;4943203;28;20906;-74
2023/01/29 06:14:54;;;;;;;15.45;12.32;;;7.90;64.30;;;;;;4938057;28;20043;-75
2023/01/29 06:17:19;;;;;;;15.48;13.23;;;8.00;64.50;;;;;;4944353;28;20118;-75
2023/01/29 06:19:45;;;;;;;16.92;13.25;;;8.00;64.50;;;;;;4942707;29;20039;-76
2023/01/29 06:22:11;;;;;;;16.08;13.35;;;8.00;64.50;;;;;;4942935;29;20114;-77
2023/01/29 06:24:37;;;;;;;15.10;11.35;;;8.00;64.50;;;;;;4941348;28;20138;-76
2023/01/29 06:27:03;;;;;;;17.92;12.18;;;8.00;64.50;;;;;;4944114;28;20031;-77
2023/01/29 06:29:29;;;;;;;16.50;12.05;;;8.00;64.50;;;;;;4937522;29;20067;-77
2023/01/29 06:31:55;;;;;;;15.68;12.02;;;8.10;64.70;;;;;;4942297;29;20055;-76
2023/01/29 06:34:21;;;;;;;17.77;12.57;;;8.00;64.50;;;;;;4943190;28;20027;-76
2023/01/29 06:36:47;;;;;;;12.43;11.13;;;8.10;64.70;;;;;;4938993;29;20039;-75
2023/01/29 06:39:13;;;;;;;13.48;11.75;;;8.00;64.50;;;;;;4941833;28;20027;-77
2023/01/29 06:41:39;;;;;;;14.27;11.05;;;8.10;64.70;;;;;;4946381;28;20051;-78
2023/01/29 06:44:05;;;;;;;13.68;10.90;;;8.10;64.70;;;;;;4927248;29;20035;-77
2023/01/29 06:46:31;;;;;;;12.77;10.50;;;8.10;64.70;;;;;;4950066;28;20048;-78
2023/01/29 06:48:59;;;;;;;12.98;10.57;;;8.10;65.20;;;;;;4941679;28;20027;-78
2023/01/29 06:51:25;;;;;;;13.77;11.02;;;8.10;64.70;;;;;;4959614;28;20050;-76
2023/01/29 06:53:53;;;;;;;13.68;11.15;;;8.10;64.80;;;;;;4943507;28;20364;-78
2023/01/29 06:56:19;;;;;;;12.27;11.00;;;8.10;64.80;;;;;;4947276;28;20039;-76
2023/01/29 06:58:45;;;;;;;14.10;10.85;;;8.10;64.80;;;;;;4943607;28;20081;-77
2023/01/29 07:01:11;;;;;;;14.05;10.85;;;8.10;64.80;;;;;;4952662;28;20114;-76
2023/01/29 07:03:37;;;;;;;12.68;10.68;;;8.10;64.80;;;;;;4961702;28;20053;-75
2023/01/29 07:06:04;;;;;;;12.25;10.98;;;8.10;64.90;;;;;;4966542;28;20047;-75
2023/01/29 07:08:30;;;;;;;13.93;10.95;;;8.10;64.90;;;;;;4959437;28;20031;-74
2023/01/29 07:11:00;;;;;;;13.27;10.32;;;8.10;64.90;;;;;;4958766;28;20049;-74
2023/01/29 07:13:26;;;;;;;12.93;10.50;;;8.10;65.00;;;;;;4950986;28;20047;-75
2023/01/29 07:15:52;;;;;;;10.25;8.45;;;8.10;65.00;;;;;;4970576;28;20498;-75
2023/01/29 07:18:18;;;;;;;11.52;9.07;;;8.20;65.20;;;;;;4949951;28;20032;-75
2023/01/29 07:20:44;;;;;;;11.80;8.95;;;8.10;65.30;;;;;;4957173;28;20058;-75
2023/01/29 07:23:11;;;;;;;14.02;10.55;;;8.20;65.70;;;;;;4974679;28;20126;-74
2023/01/29 07:25:38;;;;;;;11.18;9.23;;;8.30;66.10;;;;;;4958211;28;20046;-76
2023/01/29 07:28:05;;;;;;;9.88;8.88;;;8.40;66.30;;;;;;4954133;28;20055;-75
2023/01/29 07:30:31;;;;;;;12.32;9.50;;;8.40;66.40;;;;;;4952471;28;20121;-76
2023/01/29 07:33:02;;;;;;;11.20;9.35;;;8.50;66.60;;;;;;4955804;28;20050;-77
2023/01/29 07:35:28;;;;;;;11.32;9.43;;;8.50;66.70;;;;;;4956245;28;20285;-75
2023/01/29 07:37:54;;;;;;;11.40;8.93;;;8.60;66.80;;;;;;4945465;28;20027;-75
2023/01/29 07:40:20;;;;;;;9.85;8.80;;;8.60;66.70;;;;;;4953442;28;20486;-76
2023/01/29 07:42:46;;;;;;;11.75;9.20;;;8.60;66.70;;;;;;4952973;28;20031;-75
2023/01/29 07:45:12;;;;;;;9.45;8.23;;;8.60;66.70;;;;;;4945039;28;20399;-74
2023/01/29 07:47:38;;;;;;;9.82;8.27;;;8.60;66.80;;;;;;4945638;28;20093;-74
2023/01/29 07:50:05;;;;;;;11.15;9.15;;;8.60;66.80;;;;;;4944743;28;20154;-73
2023/01/29 07:52:32;;;;;;;10.90;9.15;;;8.60;66.80;;;;;;4945506;28;20039;-72
2023/01/29 07:54:58;;;;;;;9.93;8.90;;;8.60;66.80;;;;;;4926993;29;20055;-72
2023/01/29 07:57:25;;;;;;;10.95;9.00;;;8.60;66.80;;;;;;4943597;28;20054;-73
2023/01/29 07:59:50;;;;;;;10.30;9.18;;;8.60;66.80;;;;;;4944388;28;20114;-72
2023/01/29 08:02:17;;;;;;;10.48;8.30;;;8.60;66.90;;;;;;4945736;28;21051;-74
2023/01/29 08:04:42;;;;;;;10.35;8.98;;;8.60;66.90;;;;;;4943538;29;20031;-73
2023/01/29 08:07:08;;;;;;;10.48;8.57;;;8.50;66.70;;;;;;4938031;29;20384;-74
2023/01/29 08:09:35;;;;;;;9.27;8.27;;;8.50;66.70;;;;;;4943861;28;20077;-74
2023/01/29 08:12:01;;;;;;;10.52;7.75;;;8.50;66.70;;;;;;4938239;28;20364;-77
2023/01/29 08:14:27;;;;;;;9.38;8.30;;;8.50;67.30;;;;;;4942023;29;20041;-74
2023/01/29 08:16:52;;;;;;;8.75;7.85;;;8.50;66.80;;;;;;4943733;29;20075;-73
2023/01/29 08:19:18;;;;;;;9.25;8.25;;;8.50;66.80;;;;;;4942704;28;20035;-74
2023/01/29 08:21:44;;;;;;;10.93;8.13;;;8.50;66.80;;;;;;4937926;29;20040;-75
2023/01/29 08:24:10;;;;;;;9.13;7.40;;;8.50;66.80;;;;;;4943076;28;20118;-76
2023/01/29 08:26:36;;;;;;;12.00;8.93;;;8.50;66.80;;;;;;4942714;28;20034;-77
2023/01/29 08:29:02;;;;;;;9.05;8.07;;;8.50;66.80;;;;;;4937609;28;20517;-76
2023/01/29 08:31:28;;;;;;;9.85;7.80;;;8.50;66.80;;;;;;4942804;28;20047;-77
2023/01/29 08:33:54;;;;;;;9.23;8.00;;;8.50;66.80;;;;;;4940077;28;20034;-78
2023/01/29 08:36:20;;;;;;;10.60;8.45;;;8.50;66.80;;;;;;4938307;28;20047;-76
2023/01/29 08:38:46;;;;;;;10.00;8.57;;;8.50;66.80;;;;;;4941563;29;20043;-76
2023/01/29 08:41:12;;;;;;;10.98;8.60;;;8.50;67.00;;;;;;4958009;28;20652;-76
2023/01/29 08:43:39;;;;;;;10.15;8.73;;;8.60;67.30;;;;;;4942395;29;20027;-77
2023/01/29 08:46:06;;;;;;;10.18;9.07;;;8.60;67.20;;;;;;4939186;28;20082;-75
2023/01/29 08:48:33;;;;;;;9.32;8.20;;;8.70;67.30;;;;;;4952423;28;20058;-76
2023/01/29 08:51:01;;;;;;;10.70;8.18;;;8.70;67.30;;;;;;4943492;29;20427;-76
2023/01/29 08:53:27;;;;;;;10.20;8.23;;;8.70;67.30;;;;;;4940207;29;20066;-76
2023/01/29 08:55:54;;;;;;;8.88;7.95;;;8.70;67.20;;;;;;4942571;28;20375;-76
2023/01/29 08:58:20;;;;;;;9.18;8.27;;;8.80;67.40;;;;;;4942845;29;20039;-83
2023/01/29 09:00:46;;;;;;;10.02;7.90;;;8.80;67.30;;;;;;4943840;29;20035;-82
2023/01/29 09:03:12;;;;;;;10.75;7.75;;;8.80;67.40;;;;;;4945371;28;20389;-85
2023/01/29 09:05:40;;;;;;;10.68;8.48;;;8.80;67.30;;;;;;4935791;28;20043;-84
2023/01/29 09:08:09;;;;;;;10.02;9.02;;;8.80;67.20;;;;;;4944429;28;20451;-83
2023/01/29 09:10:35;;;;;;;8.85;7.95;;;8.80;67.20;;;;;;4943333;28;20053;-86
2023/01/29 09:13:01;;;;;;;11.32;8.32;;;8.90;67.30;;;;;;4946032;28;20502;-89
2023/01/29 09:15:28;;;;;;;10.02;8.68;;;8.90;67.30;;;;;;4943244;28;20037;-85
2023/01/29 09:17:54;;;;;;;10.27;8.43;;;8.90;67.30;;;;;;4944457;28;20118;-85
2023/01/29 09:20:20;;;;;;;8.98;7.45;;;8.90;67.30;;;;;;4946340;28;20614;-82
2023/01/29 09:22:46;;;;;;;9.15;8.25;;;8.90;67.30;;;;;;4944706;28;20045;-83
2023/01/29 09:25:13;;;;;;;9.73;7.72;;;8.90;67.30;;;;;;4934226;28;20149;-83
2023/01/29 09:27:39;;;;;;;9.95;7.30;;;9.00;67.40;;;;;;4939730;28;20186;-79
2023/01/29 09:30:05;;;;;;;10.63;7.90;;;9.00;67.40;;;;;;4939576;29;20523;-80
2023/01/29 09:32:32;;;;;;;11.70;8.98;;;9.00;67.50;;;;;;4935930;29;20065;-79
2023/01/29 09:34:58;;;;;;;10.18;7.75;;;9.00;67.50;;;;;;4942979;28;20043;-80
2023/01/29 09:37:24;;;;;;;8.70;7.03;;;9.00;67.40;;;;;;4943054;28;20050;-79
2023/01/29 09:39:50;;;;;;;7.78;6.82;;;9.00;67.40;;;;;;4935171;28;20031;-81
2023/01/29 09:42:16;;;;;;;7.78;6.97;;;9.10;67.60;;;;;;4942792;28;20450;-80
2023/01/29 09:45:10;;;;;;;7.90;7.10;;;9.10;67.50;;;;;;4934443;28;20024;-80
2023/01/29 09:47:37;;;;;;;8.77;6.50;;;9.10;67.60;;;;;;4939185;28;20158;-79
2023/01/29 09:50:11;;;;;;;7.80;7.00;;;9.10;67.50;;;;;;4947365;28;20054;-81
2023/01/29 09:52:57;;;;;;;8.00;7.20;;;9.20;68.20;;;;;;4935333;28;20036;-78
2023/01/29 09:55:31;;;;;;;7.38;6.25;;;9.20;67.60;;;;;;4944324;28;20042;-80
2023/01/29 09:58:05;;;;;;;8.63;6.20;;;9.20;67.60;;;;;;4941965;28;20565;-80
2023/01/29 10:00:58;;;;;;;7.13;5.90;;;9.20;67.60;;;;;;4951865;28;20076;-79
2023/01/29 10:04:18;;;;;;;6.82;5.85;;;9.20;67.60;;;;;;4932505;28;20126;-79
2023/01/29 10:07:06;;;;;;;6.57;5.82;;;9.20;67.60;;;;;;4924461;29;20071;-80
2023/01/29 10:10:00;;;;;;;6.93;6.22;;;9.30;67.70;;;;;;4944394;28;20043;-80
2023/01/29 10:13:04;;;;;;;5.32;4.82;;;9.40;67.90;;;;;;4948856;28;20050;-82
2023/01/29 10:15:48;;;;;;;6.10;5.20;;;9.40;67.80;;;;;;4959741;28;21033;-82
2023/01/29 10:18:35;;;;;;;5.15;4.63;;;9.50;67.80;;;;;;4941001;28;20036;-79
2023/01/29 10:21:20;;;;;;;5.90;4.68;;;9.60;67.90;;;;;;4943637;29;20035;-80
2023/01/29 10:24:00;;;;;;;5.45;4.80;;;9.70;67.90;;;;;;4946085;28;20066;-81
2023/01/29 10:26:28;;;;;;;5.20;4.70;;;9.80;67.90;;;;;;4945583;28;20046;-81
2023/01/29 10:28:56;;;;;;;4.85;4.32;;;9.80;67.70;;;;;;4932265;29;20055;-80
2023/01/29 10:31:31;;;;;;;4.93;4.20;;;9.90;67.80;;;;;;4944342;29;20049;-81
2023/01/29 10:34:10;;;;;;;5.15;4.55;;;10.00;67.90;;;;;;4938870;28;20032;-81
2023/01/29 10:36:42;;;;;;;5.63;4.20;;;10.20;68.10;;;;;;4928134;29;20039;-80
2023/01/29 10:39:19;;;;;;;4.60;3.97;;;10.20;67.80;;;;;;4945051;28;20053;-78
2023/01/29 10:42:12;;;;;;;4.78;4.28;;;10.40;68.00;;;;;;4937211;28;20337;-80
2023/01/29 10:45:16;;;;;;;4.25;3.95;;;10.40;67.90;;;;;;4941427;29;20050;-79
2023/01/29 10:47:53;;;;;;;5.07;3.88;;;10.50;68.00;;;;;;4942316;28;20038;-78
2023/01/29 10:50:19;;;;;;;4.50;4.05;;;10.60;68.00;;;;;;4943175;28;20410;-79
2023/01/29 10:53:22;;;;;;;3.55;3.25;;;10.60;67.90;;;;;;4950385;28;20051;-81
2023/01/29 10:56:02;;;;;;;3.38;3.00;;;10.80;68.20;;;;;;4960793;28;20035;-78
2023/01/29 10:58:35;;;;;;;3.90;3.38;;;10.80;68.10;;;;;;4938498;28;20050;-80
2023/01/29 11:01:02;;;;;;;4.88;3.10;;;10.90;68.10;;;;;;4960894;28;20705;-79
2023/01/29 11:03:30;;;;;;;4.60;3.90;;;10.90;68.10;;;;;;4951094;28;20043;-80
2023/01/29 11:06:11;;;;;;;6.07;3.40;;;11.00;68.40;;;;;;4949283;28;20035;-80
2023/01/29 11:08:44;;;;;;;4.47;3.50;;;11.10;68.50;;;;;;4957537;28;20334;-79
2023/01/29 11:11:12;;;;;;;;;;;11.30;68.80;;;;;;4959586;28;20043;-75
2023/01/29 11:13:59;;;;;;;3.38;3.05;;;11.40;68.70;;;;;;4958425;28;20338;-76
2023/01/29 11:16:28;;;;;;;4.00;2.80;;;11.50;68.60;;;;;;4936682;28;20098;-81
2023/01/29 11:19:00;;;;;;;3.65;2.70;;;11.60;68.60;;;;;;4944492;28;20043;-80
2023/01/29 11:21:28;;;;;;;2.30;2.10;;;11.60;68.50;;;;;;4956255;28;20424;-81
2023/01/29 11:24:06;;;;;;;4.18;2.90;;;11.70;68.60;;;;;;4963977;28;20035;-80
2023/01/29 11:26:36;;;;;;;3.05;2.38;;;11.70;68.60;;;;;;4955466;28;20050;-79
2023/01/29 11:29:02;;;;;;;2.78;2.30;;;11.70;68.70;;;;;;4940201;28;20043;-79
2023/01/29 11:31:36;;;;;;;3.42;2.97;;;11.60;68.60;;;;;;4949597;28;20093;-79
2023/01/29 11:34:19;;;;;;;2.83;2.30;;;11.60;68.80;;;;;;4951893;28;20394;-78
2023/01/29 11:36:45;;;;;;;2.00;1.83;;;11.60;68.90;;;;;;4944659;28;20145;-77
2023/01/29 11:39:22;;;;;;;1.83;1.73;;;11.50;68.70;;;;;;4946648;28;20586;-78
2023/01/29 11:41:58;;;;;;;2.60;2.40;;;11.50;69.30;;;;;;4956631;28;20051;-78
2023/01/29 11:44:40;;;;;;;5.18;2.10;;;11.50;68.90;;;;;;4962312;28;20517;-78
2023/01/29 11:47:17;;;;;;;2.92;2.33;;;11.50;69.00;;;;;;4933951;28;20027;-78
2023/01/29 11:49:59;;;;;;;19.00;3.35;;;11.50;69.20;;;;;;4942545;28;20118;-77
2023/01/29 11:52:39;;;;;;;3.30;2.20;;;11.60;69.50;;;;;;4957688;28;20050;-79
2023/01/29 11:55:25;;;;;;;2.53;2.33;;;11.70;69.50;;;;;;4957990;28;20502;-77
2023/01/29 11:58:11;;;;;;;4.32;3.00;;;11.90;69.70;;;;;;4958293;28;20034;-76
2023/01/29 12:00:40;;;;;;;4.82;2.70;;;12.00;69.80;;;;;;4947728;28;20063;-77
2023/01/29 12:03:15;;;;;;;11.45;4.00;;;12.20;69.90;;;;;;4945928;29;20487;-77
2023/01/29 12:05:55;;;;;;;6.00;3.92;;;12.30;70.00;;;;;;4945660;28;20070;-79
2023/01/29 12:08:22;;;;;;;7.00;3.38;;;12.40;70.10;;;;;;4945750;28;20027;-85
2023/01/29 12:10:49;;;;;;;4.93;3.63;;;12.60;70.30;;;;;;4936243;28;20054;-81
2023/01/29 12:13:24;;;;;;;3.83;3.05;;;12.70;70.40;;;;;;4946657;28;20153;-79
2023/01/29 12:16:22;;;;;;;5.45;2.90;;;12.80;70.50;;;;;;4946188;28;20039;-80
2023/01/29 12:18:51;;;;;;;3.97;2.22;;;13.00;70.80;;;;;;4937995;29;20465;-84
2023/01/29 12:21:27;;;;;;;3.88;2.30;;;13.10;70.70;;;;;;4945381;28;20039;-83
2023/01/29 12:24:01;;;;;;;5.18;2.63;;;13.20;70.70;;;;;;4942065;28;20081;-82
2023/01/29 12:26:50;;;;;;;3.42;1.92;;;13.30;70.80;;;;;;4943282;28;20065;-78
2023/01/29 12:29:38;;;;;;;3.28;1.40;;;13.40;70.90;;;;;;4934298;29;20070;-81
2023/01/29 12:32:23;;;;;;;4.45;1.95;;;13.50;70.90;;;;;;4943047;28;20078;-81
2023/01/29 12:35:22;;;;;;;3.75;2.10;;;13.60;70.90;;;;;;4939093;28;20039;-83
2023/01/29 12:37:59;;;;;;;2.20;1.40;;;13.70;71.00;;;;;;4933400;29;20043;-81
2023/01/29 12:40:38;;;;;;;2.55;1.25;;;13.70;70.80;;;;;;4939771;29;20039;-80
2023/01/29 12:43:22;;;;;;;5.47;1.30;;;13.80;70.80;;;;;;4943003;28;20031;-82
2023/01/29 12:45:52;;;;;;;3.58;1.27;;;13.90;70.80;;;;;;4941611;28;20031;-81
2023/01/29 12:48:41;;;;;;;3.15;1.33;;;13.90;70.90;;;;;;4943468;28;20454;-83
2023/01/29 12:51:15;;;;;;;3.45;1.17;;;13.90;70.90;;;;;;4957117;28;20071;-80
2023/01/29 12:53:56;;;;;;;2.92;1.40;;;14.00;71.00;;;;;;4956225;28;20118;-84
2023/01/29 12:56:32;;;;;;;3.35;1.92;;;14.00;70.80;;;;;;4941643;28;20179;-83
2023/01/29 12:59:03;;;;;;;2.13;1.10;;;14.00;70.70;;;;;;4943164;28;20057;-86
2023/01/29 13:01:32;;;;;;;2.28;1.13;;;14.10;70.80;;;;;;4944585;28;20185;-82
2023/01/29 13:04:13;;;;;;;2.47;1.10;;;14.20;70.90;;;;;;4925946;29;20087;-78
2023/01/29 13:06:44;;;;;;;3.17;1.63;;;14.20;70.70;;;;;;4943258;29;20064;-81
2023/01/29 13:09:29;;;;;;;2.63;1.25;;;14.30;70.70;;;;;;4939346;28;20480;-81
2023/01/29 13:12:00;;;;;;;4.20;1.35;;;14.30;70.60;;;;;;4943338;28;20141;-79
2023/01/29 13:15:04;;;;;;;2.33;1.58;;;14.40;70.70;;;;;;4942822;29;20035;-79
2023/01/29 13:17:38;;;;;;;4.90;1.40;;;14.40;70.70;;;;;;4936706;29;20529;-81
2023/01/29 13:20:23;;;;;;;2.15;1.20;;;14.50;70.70;;;;;;4933782;28;20063;-82
2023/01/29 13:22:55;;;;;;;2.60;1.23;;;14.50;70.70;;;;;;4933529;29;20074;-83
2023/01/29 13:25:20;;;;;;;3.03;1.73;;;14.60;70.80;;;;;;4944945;28;20033;-84
2023/01/29 13:27:47;;;;;;;3.95;1.00;;;14.60;70.70;;;;;;4948344;28;20039;-83
2023/01/29 13:30:43;;;;;;;2.45;1.00;;;14.60;70.70;;;;;;4951195;28;20519;-81
2023/01/29 13:33:21;;;;;;;2.75;1.00;;;14.70;70.80;;;;;;4941096;28;20047;-79
2023/01/29 13:35:56;;;;;;;2.33;0.90;;;14.70;70.70;;;;;;4943385;29;20043;-81
2023/01/29 13:38:29;;;;;;;2.03;0.90;;;14.70;70.60;;;;;;4941597;29;20124;-78
2023/01/29 13:41:02;;;;;;;1.83;0.90;;;14.70;70.40;;;;;;4942437;28;20482;-78